Time;durP1;ratioP1;P1;durP2;ratioP2;P2;SDS_P1;SDS_P2;PMS_P1;PMS_P2;Temp;Humidity;BMP_temperature;BMP_pressure;BME280_temperature;BME280_humidity;BME280_pressure;Samples;Min_cycle;Max_cycle;Signal;HPM_P1;HPM_P2
2021/12/25 00:01:27;;;;;;;33.78;17.27;;;;;;;7.39;91.72;98799.22;5084642;28;20056;-80
2021/12/25 00:03:56;;;;;;;33.80;18.23;;;;;;;7.39;91.90;98791.31;5066937;28;20185;-80
2021/12/25 00:06:24;;;;;;;43.38;19.17;;;;;;;7.42;91.97;98791.03;5084439;28;20119;-80
2021/12/25 00:08:51;;;;;;;35.72;17.55;;;;;;;7.42;92.11;98793.66;5069980;28;20047;-80
2021/12/25 00:11:18;;;;;;;34.83;17.10;;;;;;;7.44;92.04;98788.25;5073980;28;20043;-80
2021/12/25 00:13:45;;;;;;;33.45;15.63;;;;;;;7.44;91.80;98791.72;5074838;28;20045;-80
2021/12/25 00:16:12;;;;;;;27.00;14.52;;;;;;;7.46;91.82;98794.25;5063087;28;20052;-80
2021/12/25 00:18:39;;;;;;;31.10;15.55;;;;;;;7.47;91.70;98793.25;5079681;28;20040;-80
2021/12/25 00:21:08;;;;;;;33.22;16.52;;;;;;;7.47;91.60;98794.06;5086103;28;20044;-80
2021/12/25 00:23:36;;;;;;;32.35;16.75;;;;;;;7.46;91.65;98795.06;5068695;28;20512;-80
2021/12/25 00:26:08;;;;;;;29.88;16.38;;;;;;;7.45;91.60;98790.72;5071822;28;20044;-80
2021/12/25 00:28:51;;;;;;;33.53;16.35;;;;;;;7.45;91.54;98777.53;5074702;28;20510;-79
2021/12/25 00:36:15;;;;;;;31.00;16.77;;;;;;;7.46;91.50;98781.84;5045542;28;20060;-80
2021/12/25 00:38:43;;;;;;;38.00;16.02;;;;;;;7.49;91.46;98792.13;5061157;28;20131;-80
2021/12/25 00:41:12;;;;;;;33.03;15.30;;;;;;;7.47;91.56;98778.22;5076616;28;20057;-82
2021/12/25 00:43:39;;;;;;;32.70;15.55;;;;;;;7.49;91.65;98780.75;5058823;28;20067;-80
2021/12/25 00:46:06;;;;;;;30.92;15.15;;;;;;;7.49;91.47;98788.66;5068229;28;20051;-80
2021/12/25 00:48:33;;;;;;;27.92;13.68;;;;;;;7.50;91.46;98788.50;5073266;28;20098;-80
2021/12/25 00:51:01;;;;;;;31.90;16.05;;;;;;;7.50;91.49;98793.78;5049287;28;20398;-80
2021/12/25 00:53:28;;;;;;;37.25;16.05;;;;;;;7.52;91.68;98781.28;5059355;28;20063;-80
2021/12/25 00:55:56;;;;;;;36.85;15.95;;;;;;;7.53;91.38;98782.09;5071163;28;20603;-80
2021/12/25 00:58:23;;;;;;;27.83;13.38;;;;;;;7.52;91.50;98783.09;5067336;28;20044;-81
2021/12/25 01:00:51;;;;;;;28.25;13.45;;;;;;;7.52;91.30;98776.00;5082792;28;20040;-81
2021/12/25 01:03:19;;;;;;;31.42;14.73;;;;;;;7.53;91.37;98782.97;5046743;28;20051;-80
2021/12/25 01:05:46;;;;;;;31.30;14.25;;;;;;;7.50;91.26;98772.66;5067406;28;20044;-80
2021/12/25 01:08:13;;;;;;;40.85;16.00;;;;;;;7.52;91.46;98768.06;5081386;28;20052;-81
2021/12/25 01:10:47;;;;;;;31.98;13.95;;;;;;;7.47;91.33;98770.31;5065031;28;20051;-80
2021/12/25 01:13:22;;;;;;;37.03;15.52;;;;;;;7.50;91.32;98775.28;5083914;28;20131;-80
2021/12/25 01:16:05;;;;;;;27.77;13.07;;;;;;;7.51;91.39;98769.06;5074226;28;20051;-80
2021/12/25 01:21:48;;;;;;;26.35;13.77;;;;;;;7.51;91.27;98771.69;5022576;28;20048;-79
2021/12/25 01:30:09;;;;;;;32.22;14.30;;;;;;;7.51;91.01;98769.06;5062706;28;20052;-80
2021/12/25 01:33:28;;;;;;;29.83;14.50;;;;;;;7.51;91.14;98758.50;4959939;28;20430;-80
2021/12/25 01:50:12;;;;;;;32.85;14.82;;;;;;;7.52;90.83;98757.50;5059119;28;20560;-80
2021/12/25 01:52:38;;;;;;;33.95;14.48;;;;;;;7.55;90.78;98764.31;5077665;28;20076;-80
2021/12/25 01:55:10;;;;;;;27.23;13.65;;;;;;;7.52;90.81;98759.31;5081646;28;20044;-80
2021/12/25 01:57:37;;;;;;;38.00;16.23;;;;;;;7.55;90.80;98762.50;5080069;28;20045;-80
2021/12/25 02:00:08;;;;;;;130.57;17.10;;;;;;;7.57;90.88;98763.19;5063549;28;20048;-81
2021/12/25 02:02:42;;;;;;;78.53;20.20;;;;;;;7.65;90.25;98765.13;5076177;28;20044;-80
2021/12/25 02:05:10;;;;;;;45.83;17.77;;;;;;;7.58;90.46;98770.16;5039323;28;20051;-80
2021/12/25 02:07:37;;;;;;;53.03;18.10;;;;;;;7.56;90.62;98761.53;5056750;28;20074;-80
2021/12/25 02:10:06;;;;;;;50.13;19.45;;;;;;;7.57;90.48;98759.72;5035631;28;20097;-80
2021/12/25 02:12:34;;;;;;;57.95;20.60;;;;;;;7.60;90.62;98757.63;5063222;28;20461;-80
2021/12/25 02:15:07;;;;;;;51.10;19.50;;;;;;;7.56;90.77;98745.69;5073441;28;20076;-80
2021/12/25 02:20:34;;;;;;;38.08;15.70;;;;;;;7.55;90.93;98741.34;5035912;28;20174;-81
2021/12/25 02:23:04;;;;;;;35.22;15.45;;;;;;;7.56;91.07;98740.41;5062500;28;20040;-80
2021/12/25 02:25:32;;;;;;;30.70;15.15;;;;;;;7.58;90.93;98742.88;5051936;28;20040;-80
2021/12/25 02:28:04;;;;;;;32.45;14.25;;;;;;;7.57;90.86;98735.94;5076410;28;20085;-80
2021/12/25 02:30:31;;;;;;;34.35;15.38;;;;;;;7.59;90.99;98741.91;5062193;28;20036;-80
2021/12/25 02:32:58;;;;;;;31.75;14.95;;;;;;;7.58;91.14;98741.09;5050723;28;20044;-81
2021/12/25 02:35:27;;;;;;;37.17;15.13;;;;;;;7.59;91.10;98734.00;5064153;28;20051;-80
2021/12/25 02:37:54;;;;;;;29.45;14.80;;;;;;;7.60;90.96;98730.38;5068023;28;20137;-80
2021/12/25 02:40:21;;;;;;;33.03;14.95;;;;;;;7.62;91.10;98733.69;5045147;28;20378;-80
2021/12/25 02:42:48;;;;;;;32.72;15.43;;;;;;;7.62;90.94;98733.69;5049673;28;20047;-80
2021/12/25 02:45:20;;;;;;;30.85;14.50;;;;;;;7.60;90.80;98728.56;5061742;28;20117;-80
2021/12/25 02:47:49;;;;;;;35.58;14.65;;;;;;;7.61;90.96;98724.94;5063057;28;20506;-80
2021/12/25 02:50:27;;;;;;;33.60;15.82;;;;;;;7.58;90.52;98729.66;5059943;28;20059;-80
2021/12/25 02:52:54;;;;;;;35.03;16.25;;;;;;;7.63;90.96;98727.44;5072805;28;20217;-80
2021/12/25 02:55:22;;;;;;;33.88;14.82;;;;;;;7.64;90.80;98723.00;5065769;28;20054;-80
2021/12/25 02:57:51;;;;;;;32.70;14.55;;;;;;;7.63;90.76;98719.50;5067599;28;20058;-79
2021/12/25 03:00:21;;;;;;;32.83;14.80;;;;;;;7.64;90.81;98720.38;5082110;28;20094;-80
2021/12/25 03:02:49;;;;;;;32.33;13.77;;;;;;;7.62;90.91;98715.22;5060366;28;20040;-80
2021/12/25 03:05:17;;;;;;;34.70;15.35;;;;;;;7.64;90.82;98715.06;5053645;28;20495;-80
2021/12/25 03:07:45;;;;;;;36.25;16.02;;;;;;;7.64;90.86;98715.91;5064379;28;20048;-81
2021/12/25 03:10:15;;;;;;;34.67;15.77;;;;;;;7.65;90.82;98706.16;5064787;28;20988;-80
2021/12/25 03:12:52;;;;;;;34.20;15.13;;;;;;;7.64;90.89;98704.50;5047224;28;20051;-80
2021/12/25 03:15:30;;;;;;;31.23;14.63;;;;;;;7.64;90.93;98700.06;5051201;28;20036;-80
2021/12/25 03:17:57;;;;;;;26.13;13.80;;;;;;;7.66;90.66;98707.81;5061277;28;20048;-80
2021/12/25 03:20:25;;;;;;;28.17;13.73;;;;;;;7.64;90.52;98713.25;5049761;28;20044;-80
2021/12/25 03:22:52;;;;;;;26.98;13.30;;;;;;;7.65;90.58;98717.56;5069731;28;20045;-80
2021/12/25 03:25:20;;;;;;;28.50;13.07;;;;;;;7.66;90.41;98724.53;5059636;28;20044;-80
2021/12/25 03:27:49;;;;;;;28.42;13.55;;;;;;;7.66;90.47;98708.66;5080408;28;20062;-80
2021/12/25 03:30:20;;;;;;;32.75;14.65;;;;;;;7.67;90.50;98697.13;5060678;28;20492;-80
2021/12/25 03:32:47;;;;;;;32.00;13.73;;;;;;;7.66;90.42;98695.47;5075516;28;20045;-80
2021/12/25 03:35:14;;;;;;;35.65;14.05;;;;;;;7.68;90.55;98711.16;5073816;28;20052;-80
2021/12/25 03:37:40;;;;;;;28.40;12.13;;;;;;;7.68;90.42;98706.69;5063333;28;20040;-80
2021/12/25 03:40:09;;;;;;;24.90;11.57;;;;;;;7.67;90.16;98710.31;5057848;28;20037;-80
2021/12/25 03:42:36;;;;;;;29.55;14.07;;;;;;;7.67;90.26;98697.13;5057382;28;20055;-79
2021/12/25 03:45:04;;;;;;;30.25;12.23;;;;;;;7.69;90.26;98700.44;5046670;28;20057;-80
2021/12/25 03:47:36;;;;;;;25.33;12.40;;;;;;;7.68;90.37;98706.69;5078348;28;20409;-80
2021/12/25 03:53:10;;;;;;;32.38;14.15;;;;;;;7.67;90.18;98699.75;5031859;28;20357;-79
2021/12/25 04:02:12;;;;;;;31.13;12.52;;;;;;;7.64;90.24;98701.88;5055565;28;20411;-79
2021/12/25 04:04:44;;;;;;;31.70;13.68;;;;;;;7.66;90.49;98700.75;5059908;28;20049;-80
2021/12/25 04:07:55;;;;;;;31.77;12.38;;;;;;;7.66;90.56;98695.47;5049231;28;20067;-79
2021/12/25 04:10:03;;;;;;;26.52;11.70;;;;;;;7.68;90.55;98697.94;5030408;28;20060;-80
2021/12/25 04:12:30;;;;;;;27.42;12.18;;;;;;;7.66;90.40;98697.25;5040079;28;20040;-79
2021/12/25 04:15:47;;;;;;;30.60;14.20;;;;;;;7.58;89.99;98700.59;5052138;28;20045;-79
2021/12/25 04:18:13;;;;;;;27.67;12.40;;;;;;;7.67;90.55;98691.84;5016018;28;20048;-80
2021/12/25 04:20:41;;;;;;;25.45;11.63;;;;;;;7.70;90.39;98693.34;5063738;28;20051;-79
2021/12/25 04:23:17;;;;;;;29.83;13.40;;;;;;;7.71;90.51;98684.44;5053423;28;20484;-80
2021/12/25 04:25:43;;;;;;;30.33;14.00;;;;;;;7.72;90.45;98688.75;5055789;28;20123;-80
2021/12/25 04:28:17;;;;;;;27.77;13.45;;;;;;;7.72;90.23;98691.41;5043240;28;20048;-80
2021/12/25 04:31:11;;;;;;;28.40;12.23;;;;;;;7.72;90.38;98672.91;5038920;28;20048;-80
2021/12/25 05:04:06;;;;;;;25.13;13.05;;;;;;;7.70;90.08;98665.09;4987188;28;20052;-80
2021/12/25 05:07:00;;;;;;;24.33;10.90;;;;;;;7.71;90.08;98656.22;5034247;28;20060;-81
2021/12/25 05:09:28;;;;;;;19.63;10.80;;;;;;;7.72;90.03;98657.88;5080604;28;20564;-80
2021/12/25 05:11:57;;;;;;;20.60;11.10;;;;;;;7.73;89.80;98656.06;5086872;28;20064;-80
2021/12/25 05:14:24;;;;;;;16.15;8.88;;;;;;;7.73;89.99;98656.88;5064801;28;20054;-80
2021/12/25 05:16:52;;;;;;;13.80;8.40;;;;;;;7.75;89.95;98656.75;5041937;28;20511;-82
2021/12/25 05:19:20;;;;;;;15.13;8.88;;;;;;;7.75;89.62;98665.50;5079989;28;20052;-80
2021/12/25 05:21:47;;;;;;;13.68;7.20;;;;;;;7.76;89.87;98663.69;5030189;28;20790;-80
2021/12/25 05:24:15;;;;;;;18.52;8.75;;;;;;;7.75;89.60;98654.94;5064891;28;20049;-80
2021/12/25 05:26:47;;;;;;;15.63;8.13;;;;;;;7.76;89.79;98655.75;5074594;28;20083;-80
2021/12/25 05:29:22;;;;;;;20.23;9.60;;;;;;;7.76;89.93;98655.75;5043682;28;20049;-80
2021/12/25 05:31:49;;;;;;;22.23;10.50;;;;;;;7.76;89.89;98655.75;5063654;28;20110;-80
2021/12/25 05:34:20;;;;;;;17.98;8.43;;;;;;;7.77;89.82;98662.72;5049814;28;20392;-80
2021/12/25 05:37:05;;;;;;;19.92;9.00;;;;;;;7.75;89.86;98652.28;5029251;28;20129;-81
2021/12/25 05:39:32;;;;;;;12.85;7.13;;;;;;;7.76;89.66;98651.31;5063652;28;20093;-80
2021/12/25 05:41:59;;;;;;;22.67;9.60;;;;;;;7.76;89.64;98650.47;5059387;28;20048;-80
2021/12/25 05:44:27;;;;;;;20.85;10.15;;;;;;;7.77;89.84;98652.16;5063081;28;20048;-81
2021/12/25 05:47:16;;;;;;;19.27;9.75;;;;;;;7.76;89.88;98647.81;5027283;28;20044;-80
2021/12/25 05:49:46;;;;;;;14.27;8.50;;;;;;;7.77;89.85;98657.44;5063907;28;20059;-80
2021/12/25 05:52:21;;;;;;;19.83;9.32;;;;;;;7.78;89.90;98656.44;5076909;28;20119;-80
2021/12/25 05:55:11;;;;;;;19.60;10.30;;;;;;;7.77;89.74;98652.16;5020619;28;20045;-80
2021/12/25 05:57:59;;;;;;;21.65;10.55;;;;;;;7.75;89.83;98649.66;5045217;28;20511;-80
2021/12/25 06:00:40;;;;;;;21.40;9.95;;;;;;;7.77;89.77;98654.81;5059925;28;20053;-80
2021/12/25 06:03:08;;;;;;;19.10;9.40;;;;;;;7.77;89.91;98652.97;5070591;28;20502;-80
2021/12/25 06:05:38;;;;;;;20.75;8.98;;;;;;;7.78;89.88;98659.91;5047274;28;20103;-80
2021/12/25 06:08:05;;;;;;;15.23;7.82;;;;;;;7.79;89.97;98650.19;5071135;28;20052;-80
2021/12/25 06:10:32;;;;;;;18.42;8.93;;;;;;;7.80;89.78;98657.13;5067815;28;20052;-80
2021/12/25 06:13:00;;;;;;;22.52;10.52;;;;;;;7.80;89.61;98660.59;5060316;28;20046;-80
2021/12/25 06:15:35;;;;;;;20.67;9.95;;;;;;;7.80;89.65;98660.59;5067107;28;20665;-79
2021/12/25 06:18:10;;;;;;;19.00;8.95;;;;;;;7.81;89.67;98661.44;5027112;28;20044;-79
2021/12/25 06:20:44;;;;;;;20.40;9.63;;;;;;;7.80;89.71;98668.53;5084593;28;20460;-79
2021/12/25 06:23:10;;;;;;;20.45;10.25;;;;;;;7.81;89.72;98667.56;5062924;28;20044;-81
2021/12/25 06:26:02;;;;;;;9.27;5.15;;;;;;;7.81;89.73;98672.00;5073461;28;20052;-80
2021/12/25 06:28:55;;;;;;;10.00;5.45;;;;;;;7.78;89.70;98669.66;5040436;28;20403;-80
2021/12/25 06:31:45;;;;;;;6.25;3.90;;;;;;;7.80;89.80;98671.19;5031589;28;20041;-80
2021/12/25 06:34:34;;;;;;;9.02;4.93;;;;;;;7.79;89.55;98671.34;5038667;28;20725;-80
2021/12/25 06:37:20;;;;;;;10.60;4.95;;;;;;;7.77;89.71;98668.84;5073162;28;20053;-80
2021/12/25 06:40:05;;;;;;;11.55;6.38;;;;;;;7.78;89.64;98669.66;5032304;28;20081;-80
2021/12/25 06:42:37;;;;;;;13.35;7.22;;;;;;;7.80;89.70;98668.53;5072630;28;20051;-80
2021/12/25 06:45:05;;;;;;;14.35;7.63;;;;;;;7.81;89.77;98661.44;5061144;28;20060;-80
2021/12/25 06:47:31;;;;;;;17.25;8.60;;;;;;;7.82;89.65;98663.94;5077260;28;20040;-80
2021/12/25 06:50:08;;;;;;;16.25;8.43;;;;;;;7.77;89.50;98660.91;5049973;28;20427;-79
2021/12/25 06:52:50;;;;;;;16.60;8.30;;;;;;;7.83;89.98;98662.94;5047757;28;20084;-80
2021/12/25 06:55:35;;;;;;;18.63;7.93;;;;;;;7.83;89.70;98664.78;5027179;28;20396;-80
2021/12/25 06:58:31;;;;;;;68.43;5.65;;;;;;;7.82;89.74;98666.59;5007997;28;20048;-79
2021/12/25 07:00:58;;;;;;;8.43;4.63;;;;;;;7.82;89.46;98663.13;5058581;28;20526;-80
2021/12/25 07:03:27;;;;;;;10.23;4.75;;;;;;;7.82;89.71;98665.75;5061553;28;20041;-80
2021/12/25 07:06:12;;;;;;;9.70;5.80;;;;;;;7.82;89.78;98665.75;5034836;28;20191;-80
2021/12/25 07:08:57;;;;;;;12.82;6.40;;;;;;;7.83;89.74;98667.41;5059177;28;20045;-80
2021/12/25 07:11:44;;;;;;;9.75;5.35;;;;;;;7.83;89.88;98668.25;5064294;28;20048;-79
2021/12/25 07:14:17;;;;;;;10.10;4.93;;;;;;;7.83;89.96;98676.16;5047656;28;20052;-80
2021/12/25 07:16:47;;;;;;;10.38;5.13;;;;;;;7.86;89.87;98674.22;5050876;28;20048;-80
2021/12/25 07:19:32;;;;;;;8.95;5.35;;;;;;;7.85;89.87;98683.97;5022851;28;20519;-80
2021/12/25 07:22:08;;;;;;;11.18;4.72;;;;;;;7.86;89.85;98675.06;5042542;28;20568;-80
2021/12/25 07:24:34;;;;;;;10.73;5.88;;;;;;;7.86;89.71;98675.06;5077313;28;20071;-80
2021/12/25 07:27:20;;;;;;;9.80;5.53;;;;;;;7.86;89.91;98677.72;5047660;28;20047;-80
2021/12/25 07:29:57;;;;;;;10.73;5.68;;;;;;;7.87;89.76;98674.06;5061177;28;20059;-80
2021/12/25 07:32:23;;;;;;;10.52;5.75;;;;;;;7.88;89.78;98685.47;5063332;28;20041;-79
2021/12/25 07:34:51;;;;;;;10.35;5.25;;;;;;;7.88;89.79;98677.56;5072804;28;20039;-80
2021/12/25 07:37:18;;;;;;;9.45;5.22;;;;;;;7.91;89.76;98680.75;5079878;28;20082;-80
2021/12/25 07:39:45;;;;;;;11.25;6.13;;;;;;;7.90;89.89;98678.25;5081915;28;20047;-78
2021/12/25 07:42:11;;;;;;;8.93;4.95;;;;;;;7.90;89.71;98678.25;5083381;28;20056;-79
2021/12/25 07:45:16;;;;;;;9.45;5.78;;;;;;;7.88;89.71;98678.38;4993644;28;20050;-81
2021/12/25 07:47:51;;;;;;;8.10;4.78;;;;;;;7.90;89.55;98686.16;4966355;28;20148;-81
2021/12/25 07:50:18;;;;;;;8.65;4.95;;;;;;;7.90;89.70;98691.47;5026039;28;20048;-81
2021/12/25 07:52:44;;;;;;;10.00;4.85;;;;;;;7.88;89.61;98696.88;5027676;28;20048;-81
2021/12/25 07:55:12;;;;;;;9.48;5.47;;;;;;;7.90;89.66;98688.81;5041978;28;20170;-81
2021/12/25 07:57:39;;;;;;;11.10;6.65;;;;;;;7.88;89.44;98691.59;5060666;28;20052;-80
2021/12/25 08:00:09;;;;;;;10.77;6.07;;;;;;;7.88;89.23;98694.22;5074373;28;20468;-80
2021/12/25 08:02:41;;;;;;;8.52;4.63;;;;;;;7.88;89.50;98690.75;5072276;28;20539;-80
2021/12/25 08:05:08;;;;;;;8.02;5.45;;;;;;;7.88;89.27;98696.88;5060938;28;20044;-80
2021/12/25 08:07:35;;;;;;;9.35;5.88;;;;;;;7.87;89.39;98697.03;5053475;28;20045;-80
2021/12/25 08:10:13;;;;;;;12.07;6.07;;;;;;;7.87;89.43;98697.03;5076032;28;20442;-80
2021/12/25 08:12:52;;;;;;;13.77;7.30;;;;;;;7.79;89.08;98701.25;5054484;28;20059;-80
2021/12/25 08:15:22;;;;;;;18.08;9.48;;;;;;;7.85;89.29;98713.03;5012069;28;20052;-80
2021/12/25 08:17:50;;;;;;;13.82;8.73;;;;;;;7.86;89.31;98709.44;5055770;28;20048;-80
2021/12/25 08:20:31;;;;;;;15.65;8.55;;;;;;;7.86;89.40;98706.78;5077176;28;20048;-81
2021/12/25 08:23:17;;;;;;;19.05;9.65;;;;;;;7.86;89.52;98712.06;5075575;28;20040;-81
2021/12/25 08:26:03;;;;;;;16.27;8.75;;;;;;;7.85;89.22;98707.75;5058987;28;20048;-81
2021/12/25 08:28:52;;;;;;;12.55;6.85;;;;;;;7.84;89.21;98708.75;5002341;28;20381;-81
2021/12/25 08:31:38;;;;;;;9.73;5.95;;;;;;;7.85;89.33;98707.75;4992598;28;20056;-82
2021/12/25 08:34:31;;;;;;;12.95;6.95;;;;;;;7.81;89.52;98712.50;5048810;28;20058;-80
2021/12/25 08:36:57;;;;;;;10.88;6.45;;;;;;;7.84;89.36;98711.38;5064543;28;20180;-80
2021/12/25 08:39:24;;;;;;;8.15;5.88;;;;;;;7.86;89.27;98708.56;5077521;28;20059;-80
2021/12/25 08:42:00;;;;;;;9.13;5.55;;;;;;;7.87;89.49;98713.72;5045007;28;20037;-80
2021/12/25 08:44:35;;;;;;;9.23;5.03;;;;;;;7.88;89.53;98722.47;5075761;28;20036;-80
2021/12/25 08:47:06;;;;;;;7.38;5.05;;;;;;;7.86;89.46;98725.28;5056021;28;20059;-81
2021/12/25 08:49:34;;;;;;;9.10;5.93;;;;;;;7.88;89.14;98731.22;5061904;28;20106;-82
2021/12/25 08:52:07;;;;;;;11.50;6.68;;;;;;;7.85;88.87;98733.34;5062123;28;20044;-82
2021/12/25 08:54:34;;;;;;;11.18;6.95;;;;;;;7.87;89.28;98726.94;5079656;28;20534;-82
2021/12/25 08:57:02;;;;;;;8.93;5.70;;;;;;;7.88;89.40;98738.34;5062512;28;20052;-82
2021/12/25 08:59:29;;;;;;;8.90;5.85;;;;;;;7.88;89.55;98740.97;5057562;28;20367;-81
2021/12/25 09:01:56;;;;;;;14.60;7.95;;;;;;;7.89;89.33;98748.78;5078844;28;20123;-81
2021/12/25 09:04:23;;;;;;;11.85;7.15;;;;;;;7.90;89.38;98750.44;5066058;28;20495;-82
2021/12/25 09:06:50;;;;;;;14.48;7.88;;;;;;;7.91;89.38;98745.97;5063067;28;20127;-81
2021/12/25 09:09:17;;;;;;;11.68;7.07;;;;;;;7.90;89.58;98760.19;5077001;28;20484;-80
2021/12/25 09:11:44;;;;;;;12.93;7.15;;;;;;;7.91;89.31;98753.91;5055748;28;20144;-80
2021/12/25 09:14:11;;;;;;;8.65;5.40;;;;;;;7.90;89.62;98750.44;5049117;28;20041;-80
2021/12/25 09:16:38;;;;;;;8.88;5.80;;;;;;;7.90;89.63;98750.44;5051615;28;20480;-80
2021/12/25 09:19:05;;;;;;;9.32;5.15;;;;;;;7.93;89.65;98758.06;5077933;28;20048;-80
2021/12/25 09:21:32;;;;;;;6.40;4.00;;;;;;;7.93;89.60;98754.59;5056850;28;20044;-79
2021/12/25 09:23:59;;;;;;;7.57;4.22;;;;;;;7.94;89.49;98756.28;5059604;28;20044;-79
2021/12/25 09:26:26;;;;;;;7.38;4.78;;;;;;;7.94;89.35;98756.28;5058715;28;20048;-79
2021/12/25 09:28:53;;;;;;;7.30;4.57;;;;;;;7.95;89.63;98757.94;5073873;28;20071;-80
2021/12/25 09:31:19;;;;;;;6.50;4.20;;;;;;;7.94;89.62;98759.75;5075747;28;20055;-79
2021/12/25 09:33:47;;;;;;;7.13;4.60;;;;;;;7.96;89.79;98767.50;5062540;28;20119;-79
2021/12/25 09:36:16;;;;;;;4.30;2.72;;;;;;;7.87;90.33;98766.59;5073042;28;20476;-79
2021/12/25 09:38:43;;;;;;;10.13;6.30;;;;;;;8.11;90.26;98776.63;5058076;28;20632;-80
2021/12/25 09:41:09;;;;;;;9.65;5.78;;;;;;;8.15;89.46;98772.72;5061788;28;20508;-81
2021/12/25 09:43:39;;;;;;;12.18;6.07;;;;;;;8.14;89.37;98770.22;5076930;28;20055;-81
2021/12/25 09:46:07;;;;;;;9.77;5.95;;;;;;;8.13;89.42;98776.50;5074503;28;20075;-81
2021/12/25 09:48:34;;;;;;;11.68;6.20;;;;;;;8.11;89.28;98779.28;5052706;28;20048;-81
2021/12/25 09:51:04;;;;;;;10.88;6.28;;;;;;;8.08;89.08;98781.38;5046448;28;20051;-81
2021/12/25 09:53:32;;;;;;;9.35;6.03;;;;;;;8.10;89.12;98780.25;5054253;28;20079;-81
2021/12/25 09:56:01;;;;;;;10.52;6.30;;;;;;;8.06;89.41;98786.81;5067596;28;20491;-81
2021/12/25 09:58:29;;;;;;;10.63;6.03;;;;;;;8.05;89.37;98787.81;5049617;28;20075;-82
2021/12/25 10:00:57;;;;;;;11.02;6.13;;;;;;;8.02;89.33;98781.00;5082798;28;20541;-80
2021/12/25 10:03:45;;;;;;;10.00;5.07;;;;;;;7.93;89.29;98781.03;5058740;28;20067;-80
2021/12/25 10:06:28;;;;;;;6.10;3.50;;;;;;;7.90;89.25;98787.44;5040383;28;20112;-80
2021/12/25 10:08:54;;;;;;;5.93;3.95;;;;;;;8.04;89.01;98784.34;5067623;28;20063;-80
2021/12/25 10:11:22;;;;;;;5.68;3.65;;;;;;;8.07;88.79;98790.31;5053728;28;20037;-80
2021/12/25 10:13:53;;;;;;;4.82;3.20;;;;;;;7.97;88.85;98788.53;5072846;28;20094;-81
2021/12/25 10:16:29;;;;;;;6.13;3.65;;;;;;;7.96;89.02;98788.66;5056324;28;20507;-81
2021/12/25 10:19:15;;;;;;;3.72;2.70;;;;;;;7.89;88.49;98795.53;5067342;28;20047;-82
2021/12/25 10:21:41;;;;;;;4.80;3.08;;;;;;;7.96;88.88;98794.81;5002672;28;20399;-81
2021/12/25 10:24:13;;;;;;;4.35;2.70;;;;;;;7.95;88.83;98801.06;5043739;28;20758;-81
2021/12/25 10:26:43;;;;;;;4.18;2.38;;;;;;;7.93;89.30;98799.53;5070607;28;20052;-81
2021/12/25 10:29:28;;;;;;;3.78;2.90;;;;;;;7.83;88.68;98797.75;5063338;28;20052;-81
2021/12/25 10:31:58;;;;;;;4.03;2.33;;;;;;;7.96;88.54;98797.44;5044714;28;20040;-82
2021/12/25 10:34:27;;;;;;;2.70;2.20;;;;;;;7.97;87.78;98799.09;5052868;28;20048;-82
2021/12/25 10:37:04;;;;;;;3.25;1.55;;;;;;;7.86;86.77;98816.94;5072197;28;20040;-81
2021/12/25 10:39:31;;;;;;;1.98;1.40;;;;;;;7.78;86.54;98815.00;5060612;28;20115;-80
2021/12/25 10:42:12;;;;;;;2.33;1.30;;;;;;;7.74;86.18;98819.75;5047621;28;20048;-81
2021/12/25 10:44:47;;;;;;;2.63;1.40;;;;;;;7.72;84.84;98815.59;5020790;28;20695;-82
2021/12/25 10:47:23;;;;;;;2.22;1.42;;;;;;;7.65;84.94;98806.56;5027282;28;20428;-83
2021/12/25 10:50:08;;;;;;;2.30;1.60;;;;;;;7.58;84.82;98827.41;5057197;28;20044;-81
2021/12/25 10:52:55;;;;;;;1.90;1.35;;;;;;;7.42;83.69;98832.47;5042238;28;20048;-83
2021/12/25 10:55:25;;;;;;;3.42;1.80;;;;;;;7.51;84.57;98821.88;5082618;28;20048;-81
2021/12/25 10:57:58;;;;;;;2.38;1.80;;;;;;;7.56;83.83;98837.31;5052485;28;20487;-82
2021/12/25 11:00:27;;;;;;;3.15;1.67;;;;;;;7.43;84.79;98824.41;5065722;28;20123;-81
2021/12/25 11:03:06;;;;;;;2.70;1.90;;;;;;;7.47;84.63;98838.97;5046865;28;20054;-81
2021/12/25 11:05:36;;;;;;;2.83;1.60;;;;;;;7.52;83.56;98842.03;5057886;28;20075;-82
2021/12/25 11:08:09;;;;;;;2.20;1.60;;;;;;;7.37;83.49;98828.41;5057956;28;20113;-82
2021/12/25 11:10:45;;;;;;;2.28;1.50;;;;;;;7.40;83.75;98824.66;5052617;28;20045;-80
2021/12/25 11:13:16;;;;;;;2.80;1.52;;;;;;;7.43;83.89;98836.75;5058336;28;20475;-81
2021/12/25 11:15:44;;;;;;;1.98;1.55;;;;;;;7.45;84.14;98838.28;5059363;28;20131;-81
2021/12/25 11:18:12;;;;;;;2.20;1.40;;;;;;;7.47;84.43;98830.22;5040477;28;20048;-82
2021/12/25 11:20:40;;;;;;;2.05;1.60;;;;;;;7.49;83.98;98833.56;5077080;28;20056;-82
2021/12/25 11:23:10;;;;;;;2.30;1.70;;;;;;;7.49;83.74;98829.09;5043351;28;20040;-83
2021/12/25 11:25:38;;;;;;;1.73;1.63;;;;;;;7.50;83.50;98824.66;5063693;28;20105;-81
2021/12/25 11:28:09;;;;;;;1.80;1.45;;;;;;;7.52;81.52;98830.63;5057636;28;20044;-81
2021/12/25 11:30:42;;;;;;;2.45;1.40;;;;;;;7.45;82.37;98842.72;5022672;28;20412;-80
2021/12/25 11:33:10;;;;;;;2.08;1.20;;;;;;;7.41;82.36;98839.56;5061982;28;20052;-80
2021/12/25 11:35:38;;;;;;;1.45;1.17;;;;;;;7.45;81.08;98843.56;5039929;28;20097;-82
2021/12/25 11:38:07;;;;;;;1.88;1.25;;;;;;;7.37;80.93;98844.25;5073996;28;20047;-83
2021/12/25 11:40:39;;;;;;;1.65;1.52;;;;;;;7.40;79.75;98851.06;5057764;28;20044;-80
2021/12/25 11:43:06;;;;;;;3.00;1.67;;;;;;;7.18;79.73;98845.09;5058928;28;20040;-81
2021/12/25 11:45:39;;;;;;;2.25;1.70;;;;;;;7.10;78.31;98849.44;5059954;28;20047;-81
2021/12/25 11:48:20;;;;;;;1.80;1.65;;;;;;;7.04;79.19;98839.41;5043418;28;20041;-81
2021/12/25 11:50:51;;;;;;;2.75;1.80;;;;;;;7.05;79.18;98852.47;5009794;28;20040;-81
2021/12/25 11:53:40;;;;;;;1.98;1.55;;;;;;;7.00;78.58;98852.06;5067328;28;20509;-80
2021/12/25 11:56:31;;;;;;;2.60;1.85;;;;;;;6.95;79.48;98847.19;5029204;28;20082;-81
2021/12/25 11:59:09;;;;;;;2.70;1.80;;;;;;;7.01;80.35;98843.16;5025128;28;20632;-81
2021/12/25 12:01:44;;;;;;;2.95;1.90;;;;;;;7.06;79.01;98850.66;5056732;28;20064;-81
2021/12/25 12:04:10;;;;;;;2.90;2.13;;;;;;;7.01;78.90;98851.06;5062518;28;20043;-81
2021/12/25 12:06:46;;;;;;;2.22;1.83;;;;;;;6.94;77.65;98852.56;5048605;28;20053;-81
2021/12/25 12:09:16;;;;;;;5.38;2.30;;;;;;;6.91;78.23;98856.31;5062090;28;20052;-82
2021/12/25 12:12:11;;;;;;;4.53;2.28;;;;;;;6.80;78.57;98847.72;5033688;28;20040;-81
2021/12/25 12:15:13;;;;;;;4.47;2.80;;;;;;;6.80;78.94;98850.34;5000024;28;20550;-82
2021/12/25 12:18:30;;;;;;;2.53;2.20;;;;;;;6.69;78.33;98852.13;5046453;28;20044;-81
2021/12/25 12:21:09;;;;;;;4.00;2.80;;;;;;;6.66;77.88;98841.81;5039726;28;20736;-82
2021/12/25 12:26:14;;;;;;;3.63;2.58;;;;;;;6.65;78.69;98853.34;5028870;28;20047;-82
2021/12/25 12:28:46;;;;;;;2.65;2.00;;;;;;;6.74;77.42;98855.19;5063751;28;20044;-81
2021/12/25 12:31:39;;;;;;;2.80;1.98;;;;;;;6.50;76.23;98862.63;5060548;28;20049;-83
2021/12/25 12:34:31;;;;;;;3.88;2.40;;;;;;;6.49;76.21;98867.06;4980176;28;20396;-79
2021/12/25 12:37:13;;;;;;;2.50;2.08;;;;;;;6.51;76.67;98869.53;5025168;28;20463;-79
2021/12/25 12:40:04;;;;;;;3.67;2.25;;;;;;;6.44;76.73;98881.63;5006397;28;20040;-80
2021/12/25 12:42:57;;;;;;;2.58;2.03;;;;;;;6.41;76.00;98872.19;5018858;28;20051;-83
2021/12/25 12:45:33;;;;;;;3.08;2.10;;;;;;;6.30;76.02;98867.81;5000273;28;20078;-83
2021/12/25 12:48:22;;;;;;;2.85;2.17;;;;;;;6.51;74.69;98865.13;4972120;28;20055;-82
2021/12/25 12:50:55;;;;;;;3.22;2.17;;;;;;;6.29;76.90;98886.41;4971664;28;20600;-82
2021/12/25 12:53:23;;;;;;;3.72;2.38;;;;;;;6.34;77.47;98893.94;4985004;28;20113;-81
2021/12/25 12:55:54;;;;;;;3.58;2.30;;;;;;;6.26;77.28;98884.03;5005526;28;20493;-81
2021/12/25 12:58:26;;;;;;;3.00;2.42;;;;;;;6.20;76.72;98895.94;4958686;28;20073;-83
2021/12/25 13:00:57;;;;;;;3.35;2.30;;;;;;;6.12;76.20;98889.66;4993292;28;20636;-84
2021/12/25 13:03:27;;;;;;;3.80;2.67;;;;;;;6.22;77.32;98883.44;4994512;28;20650;-83
2021/12/25 13:06:03;;;;;;;4.20;2.92;;;;;;;6.23;76.13;98881.66;4995742;28;20049;-82
2021/12/25 13:08:34;;;;;;;3.50;2.63;;;;;;;6.28;76.79;98895.28;4995351;28;20047;-81
2021/12/25 13:11:17;;;;;;;9.63;3.60;;;;;;;6.15;76.33;98894.66;4998988;28;20050;-82
2021/12/25 13:13:57;;;;;;;14.98;6.00;;;;;;;6.08;75.50;98895.19;4971760;28;20056;-81
2021/12/25 13:16:34;;;;;;;3.75;2.60;;;;;;;6.08;75.67;98911.00;4958671;28;20079;-82